Time;durP1;ratioP1;P1;durP2;ratioP2;P2;SDS_P1;SDS_P2;PMS_P1;PMS_P2;Temp;Humidity;BMP_temperature;BMP_pressure;BME280_temperature;BME280_humidity;BME280_pressure;Samples;Min_cycle;Max_cycle;Signal;HPM_P1;HPM_P2
2023/06/28 00:01:00;;;;;;;7.75;2.40;;;;;;;16.92;100.00;101754.03;5015156;28;20069;-57
2023/06/28 00:03:28;;;;;;;6.97;2.15;;;;;;;16.87;100.00;101751.69;5012761;28;20444;-58
2023/06/28 00:05:56;;;;;;;8.32;2.35;;;;;;;16.84;100.00;101753.75;5015623;28;20042;-57
2023/06/28 00:08:24;;;;;;;11.38;2.35;;;;;;;16.86;100.00;101757.13;5017199;28;20053;-57
2023/06/28 00:10:53;;;;;;;8.60;2.10;;;;;;;16.75;100.00;101752.63;5014786;28;20038;-57
2023/06/28 00:13:22;;;;;;;8.02;2.53;;;;;;;16.78;100.00;101748.91;5013593;28;20060;-57
2023/06/28 00:15:51;;;;;;;6.93;1.98;;;;;;;16.80;100.00;101747.81;5014596;28;20049;-56
2023/06/28 00:18:19;;;;;;;7.32;2.17;;;;;;;16.80;100.00;101750.47;5015108;28;20038;-58
2023/06/28 00:20:47;;;;;;;7.35;2.47;;;;;;;16.77;100.00;101747.19;5017894;28;20746;-57
2023/06/28 00:23:15;;;;;;;9.60;2.78;;;;;;;16.73;100.00;101746.59;5012019;28;20042;-58
2023/06/28 00:25:43;;;;;;;6.93;2.53;;;;;;;16.73;100.00;101752.75;5019726;28;20424;-57
2023/06/28 00:28:14;;;;;;;7.38;2.22;;;;;;;16.82;100.00;101750.34;5015554;28;20049;-57
2023/06/28 00:30:43;;;;;;;7.03;2.22;;;;;;;16.84;100.00;101753.75;5015676;28;20046;-57
2023/06/28 00:33:12;;;;;;;7.50;2.83;;;;;;;16.76;100.00;101750.84;5014426;28;20053;-56
2023/06/28 00:35:40;;;;;;;10.10;2.78;;;;;;;16.65;100.00;101751.66;5014663;28;20060;-57
2023/06/28 00:38:08;;;;;;;8.82;2.60;;;;;;;16.63;100.00;101745.59;5015817;28;20069;-57
2023/06/28 00:40:36;;;;;;;9.75;3.05;;;;;;;16.59;100.00;101750.28;5009949;28;20477;-57
2023/06/28 00:43:04;;;;;;;8.55;2.50;;;;;;;16.65;100.00;101755.16;5018054;28;20121;-58
2023/06/28 00:45:32;;;;;;;8.85;2.35;;;;;;;16.70;100.00;101753.00;5019222;28;20062;-57
2023/06/28 00:48:02;;;;;;;9.85;2.65;;;;;;;16.69;100.00;101755.78;5021616;28;20568;-57
2023/06/28 00:50:31;;;;;;;10.88;2.60;;;;;;;16.71;100.00;101752.03;5021317;28;20049;-57
2023/06/28 00:52:59;;;;;;;7.72;2.50;;;;;;;16.72;100.00;101756.38;5011797;28;20077;-57
2023/06/28 00:55:28;;;;;;;9.60;2.40;;;;;;;16.75;100.00;101755.28;5018547;28;20532;-57
2023/06/28 00:57:58;;;;;;;9.80;2.35;;;;;;;16.74;100.00;101753.59;5020564;28;20052;-57
2023/06/28 01:00:26;;;;;;;7.60;2.50;;;;;;;16.81;100.00;101749.50;5023590;28;20069;-57
2023/06/28 01:02:55;;;;;;;8.45;2.72;;;;;;;16.74;100.00;101742.97;5021088;28;20054;-57
2023/06/28 01:05:25;;;;;;;9.02;2.38;;;;;;;16.84;100.00;101745.78;5018500;28;20505;-57
2023/06/28 01:07:54;;;;;;;7.57;2.00;;;;;;;16.83;100.00;101750.22;5018658;28;20038;-59
2023/06/28 01:10:24;;;;;;;7.50;2.38;;;;;;;16.79;100.00;101747.94;5021255;28;20046;-56
2023/06/28 01:12:52;;;;;;;7.68;2.47;;;;;;;16.85;100.00;101750.97;5016625;28;20046;-56
2023/06/28 01:15:21;;;;;;;7.95;2.55;;;;;;;16.73;100.00;101752.75;5018255;28;20535;-58
2023/06/28 01:17:51;;;;;;;12.35;2.75;;;;;;;16.80;100.00;101754.94;5018768;28;20096;-58
2023/06/28 01:20:19;;;;;;;8.82;2.95;;;;;;;16.83;100.00;101757.38;5025172;28;20527;-58
2023/06/28 01:22:55;;;;;;;6.55;2.38;;;;;;;16.78;100.00;101755.03;5019397;28;20053;-58
2023/06/28 01:25:24;;;;;;;6.50;2.08;;;;;;;16.79;100.00;101747.94;5022783;28;20049;-57
2023/06/28 01:27:52;;;;;;;9.90;2.38;;;;;;;16.79;100.00;101748.78;5018399;28;20061;-58
2023/06/28 01:30:23;;;;;;;5.20;2.00;;;;;;;16.83;100.00;101754.69;5016260;28;20128;-57
2023/06/28 01:32:55;;;;;;;6.30;2.28;;;;;;;16.87;100.00;101743.72;5020180;28;20116;-57
2023/06/28 01:35:23;;;;;;;8.88;2.38;;;;;;;16.91;100.00;101749.66;5016267;28;20381;-57
2023/06/28 01:37:53;;;;;;;7.03;2.10;;;;;;;16.89;100.00;101748.94;5020386;28;20044;-59
2023/06/28 01:40:22;;;;;;;9.00;2.20;;;;;;;16.92;100.00;101748.72;5013736;28;20096;-57
2023/06/28 01:42:50;;;;;;;8.25;2.22;;;;;;;16.91;100.00;101757.66;5021305;28;20045;-57
2023/06/28 01:45:19;;;;;;;5.95;2.00;;;;;;;16.85;100.00;101752.75;5018513;28;20046;-57
2023/06/28 01:47:47;;;;;;;8.02;2.20;;;;;;;16.92;100.00;101758.47;5021036;28;20041;-57
2023/06/28 01:50:17;;;;;;;7.38;2.67;;;;;;;17.02;100.00;101751.50;5018681;28;20390;-58
2023/06/28 01:52:45;;;;;;;5.70;2.20;;;;;;;16.98;100.00;101752.69;5014738;28;20104;-56
2023/06/28 01:55:15;;;;;;;9.20;2.80;;;;;;;16.90;100.00;101759.44;5015465;28;20529;-57
2023/06/28 01:57:44;;;;;;;6.65;2.20;;;;;;;16.76;100.00;101757.00;5020678;28;20049;-58
2023/06/28 02:00:15;;;;;;;9.02;2.58;;;;;;;16.79;100.00;101756.75;5018118;28;20037;-56
2023/06/28 02:02:46;;;;;;;8.00;2.70;;;;;;;16.78;100.00;101756.88;5018114;28;20124;-56
2023/06/28 02:05:14;;;;;;;8.73;2.45;;;;;;;16.62;100.00;101760.72;5017839;28;20057;-57
2023/06/28 02:07:42;;;;;;;5.93;2.25;;;;;;;16.68;100.00;101757.56;5020871;28;20041;-54
2023/06/28 02:10:11;;;;;;;7.93;2.17;;;;;;;16.69;100.00;101753.13;5019621;28;20780;-54
2023/06/28 02:12:40;;;;;;;7.03;2.05;;;;;;;16.69;100.00;101750.47;5016125;28;20033;-55
2023/06/28 02:15:09;;;;;;;7.05;2.38;;;;;;;16.72;100.00;101755.53;5024750;28;20455;-54
2023/06/28 02:17:38;;;;;;;8.02;2.28;;;;;;;16.71;100.00;101757.34;5017454;28;20038;-54
2023/06/28 02:20:08;;;;;;;9.38;2.20;;;;;;;16.70;100.00;101741.50;5017626;28;20069;-54
2023/06/28 02:22:37;;;;;;;8.48;2.28;;;;;;;16.67;100.00;101744.41;5016325;28;20038;-54
2023/06/28 02:25:08;;;;;;;8.18;2.25;;;;;;;16.68;100.00;101749.59;5017366;28;20046;-55
2023/06/28 02:27:37;;;;;;;7.28;2.38;;;;;;;16.64;100.00;101740.19;5019240;28;20037;-56
2023/06/28 02:30:08;;;;;;;8.50;2.60;;;;;;;16.63;100.00;101741.13;5017040;28;20037;-56
2023/06/28 02:32:36;;;;;;;7.43;2.10;;;;;;;16.64;100.00;101732.22;5017642;28;20089;-55
2023/06/28 02:35:05;;;;;;;6.00;2.20;;;;;;;16.73;100.00;101734.16;5013299;28;20057;-53
2023/06/28 02:37:33;;;;;;;7.15;2.15;;;;;;;16.64;100.00;101734.88;5014564;28;20458;-54
2023/06/28 02:40:01;;;;;;;8.93;2.40;;;;;;;16.55;100.00;101732.91;5018128;28;20045;-54
2023/06/28 02:42:29;;;;;;;7.70;2.03;;;;;;;16.53;100.00;101734.84;5019660;28;20053;-53
2023/06/28 02:44:58;;;;;;;7.53;2.20;;;;;;;16.34;100.00;101733.59;5016573;28;20092;-53
2023/06/28 02:47:27;;;;;;;7.25;2.00;;;;;;;16.25;100.00;101728.13;5021655;28;20041;-54
2023/06/28 02:49:55;;;;;;;5.82;1.92;;;;;;;16.18;100.00;101727.75;5017377;28;20049;-50
2023/06/28 02:52:26;;;;;;;4.68;1.90;;;;;;;16.27;100.00;101731.53;5017815;28;20053;-53
2023/06/28 02:54:54;;;;;;;5.57;1.90;;;;;;;16.26;100.00;101725.34;5012754;28;20046;-52
2023/06/28 02:57:22;;;;;;;7.90;2.00;;;;;;;16.25;100.00;101733.44;5016799;28;20042;-55
2023/06/28 02:59:50;;;;;;;7.13;2.40;;;;;;;16.37;100.00;101730.72;5017026;28;20448;-56
2023/06/28 03:02:19;;;;;;;5.28;1.77;;;;;;;16.30;100.00;101725.97;5019446;28;20497;-53
2023/06/28 03:04:48;;;;;;;5.10;1.75;;;;;;;16.28;100.00;101733.19;5015629;28;20061;-53
2023/06/28 03:07:19;;;;;;;4.22;1.75;;;;;;;16.22;100.00;101727.41;5011244;28;20064;-51
2023/06/28 03:09:47;;;;;;;6.05;1.63;;;;;;;16.10;100.00;101727.47;5022813;28;20045;-55
2023/06/28 03:12:16;;;;;;;8.30;2.08;;;;;;;15.97;100.00;101717.78;5012766;28;20051;-54
2023/06/28 03:14:44;;;;;;;6.72;2.22;;;;;;;15.75;100.00;101715.84;5019632;28;20059;-55
2023/06/28 03:17:17;;;;;;;6.60;2.05;;;;;;;15.89;100.00;101722.81;5019410;28;20065;-55
2023/06/28 03:19:45;;;;;;;4.82;1.73;;;;;;;16.11;100.00;101715.91;5021887;28;20564;-54
2023/06/28 03:22:15;;;;;;;6.10;1.80;;;;;;;15.96;100.00;101717.91;5010641;28;20057;-56
2023/06/28 03:24:43;;;;;;;4.85;1.65;;;;;;;16.09;100.00;101715.16;5020830;28;20049;-56
2023/06/28 03:27:11;;;;;;;6.13;1.98;;;;;;;15.99;100.00;101710.56;5016743;28;20049;-55
2023/06/28 03:29:40;;;;;;;4.80;2.22;;;;;;;15.97;100.00;101716.94;5019391;28;20124;-54
2023/06/28 03:32:09;;;;;;;8.23;2.50;;;;;;;15.98;100.00;101714.16;5014660;28;20051;-56
2023/06/28 03:34:37;;;;;;;6.07;1.98;;;;;;;16.04;100.00;101713.69;5016703;28;20068;-55
2023/06/28 03:37:07;;;;;;;8.20;2.58;;;;;;;16.09;100.00;101709.84;5017797;28;20051;-54
2023/06/28 03:39:36;;;;;;;7.63;2.88;;;;;;;16.09;100.00;101707.19;5014785;28;20128;-56
2023/06/28 03:42:05;;;;;;;6.32;2.33;;;;;;;16.02;100.00;101712.13;5018091;28;20061;-55
2023/06/28 03:44:33;;;;;;;6.28;2.22;;;;;;;15.83;100.00;101708.19;5018519;28;20033;-56
2023/06/28 03:47:01;;;;;;;6.85;2.50;;;;;;;15.90;100.00;101705.94;5016124;28;20052;-56
2023/06/28 03:49:29;;;;;;;7.72;2.72;;;;;;;15.76;100.00;101706.06;5016330;28;20443;-56
2023/06/28 03:51:57;;;;;;;7.95;2.20;;;;;;;15.85;100.00;101697.47;5015599;28;20121;-56
2023/06/28 03:54:25;;;;;;;7.47;2.85;;;;;;;15.90;100.00;101705.94;5017213;28;20066;-55
2023/06/28 03:56:55;;;;;;;8.63;2.88;;;;;;;15.76;100.00;101700.75;5016515;28;20061;-56
2023/06/28 03:59:23;;;;;;;8.40;3.10;;;;;;;15.67;100.00;101703.13;5012757;28;20048;-56
2023/06/28 04:01:51;;;;;;;10.95;3.42;;;;;;;15.70;100.00;101705.53;5015138;28;20066;-55
2023/06/28 04:04:19;;;;;;;10.05;3.00;;;;;;;15.62;100.00;101710.56;5014151;28;20925;-56
2023/06/28 04:06:48;;;;;;;8.30;3.17;;;;;;;15.48;100.00;101708.09;5017879;28;20052;-55
2023/06/28 04:09:16;;;;;;;9.98;3.38;;;;;;;15.53;100.00;101698.84;5014672;28;20041;-56
2023/06/28 04:11:44;;;;;;;8.90;3.10;;;;;;;15.60;100.00;101703.69;5016300;28;20468;-56
2023/06/28 04:14:14;;;;;;;7.88;3.13;;;;;;;15.53;100.00;101708.59;5016827;28;20177;-56
2023/06/28 04:16:42;;;;;;;6.32;2.95;;;;;;;15.41;100.00;101704.19;5018692;28;20049;-55
2023/06/28 04:19:10;;;;;;;10.70;3.70;;;;;;;15.47;100.00;101706.38;5023930;28;20498;-55
2023/06/28 04:21:39;;;;;;;7.40;3.28;;;;;;;15.56;100.00;101703.06;5022819;28;20076;-54
2023/06/28 04:24:07;;;;;;;9.07;3.95;;;;;;;15.46;100.00;101699.38;5018819;28;20045;-54
2023/06/28 04:26:35;;;;;;;7.28;3.25;;;;;;;15.61;100.00;101703.59;5019648;28;20378;-55
2023/06/28 04:29:04;;;;;;;8.45;3.47;;;;;;;15.62;100.00;101702.63;5017106;28;20540;-55
2023/06/28 04:31:34;;;;;;;8.05;3.58;;;;;;;15.68;100.00;101704.00;5015544;28;20057;-55
2023/06/28 04:34:02;;;;;;;6.50;2.97;;;;;;;15.65;100.00;101707.72;5021635;28;20053;-55
2023/06/28 04:36:31;;;;;;;7.40;3.00;;;;;;;15.65;100.00;101701.53;5022442;28;20053;-55
2023/06/28 04:38:59;;;;;;;7.80;2.97;;;;;;;15.74;100.00;101710.66;5019443;28;20045;-54
2023/06/28 04:41:27;;;;;;;8.10;3.10;;;;;;;15.71;100.00;101701.09;5017028;28;20501;-52
2023/06/28 04:43:58;;;;;;;10.23;3.33;;;;;;;15.60;100.00;101704.53;5020627;28;20069;-56
2023/06/28 04:46:27;;;;;;;6.65;2.75;;;;;;;15.69;100.00;101706.53;5023557;28;20051;-55
2023/06/28 04:48:57;;;;;;;6.63;2.85;;;;;;;15.45;100.00;101695.91;5024701;28;20077;-53
2023/06/28 04:51:25;;;;;;;7.07;2.75;;;;;;;15.55;100.00;101706.69;5020207;28;20157;-55
2023/06/28 04:53:54;;;;;;;6.40;3.17;;;;;;;15.58;100.00;101701.13;5019160;28;20040;-54
2023/06/28 04:56:22;;;;;;;8.27;3.33;;;;;;;15.49;100.00;101701.84;5018439;28;20038;-56
2023/06/28 04:58:50;;;;;;;7.85;3.10;;;;;;;15.49;100.00;101697.38;5022429;28;20141;-53
2023/06/28 05:01:18;;;;;;;7.82;3.22;;;;;;;15.56;100.00;101705.72;5016540;28;20034;-55
2023/06/28 05:03:49;;;;;;;7.40;3.08;;;;;;;15.53;100.00;101703.31;5018142;28;20053;-57
2023/06/28 05:06:19;;;;;;;7.97;3.65;;;;;;;15.58;100.00;101700.31;5019827;28;20115;-56
2023/06/28 05:08:47;;;;;;;10.50;3.30;;;;;;;15.51;100.00;101702.56;5016549;28;20042;-55
2023/06/28 05:11:16;;;;;;;10.15;3.50;;;;;;;15.52;100.00;101701.59;5017981;28;20512;-55
2023/06/28 05:13:44;;;;;;;11.00;3.88;;;;;;;15.57;100.00;101699.47;5015299;28;20042;-57
2023/06/28 05:16:12;;;;;;;10.07;4.05;;;;;;;15.57;100.00;101702.13;5016728;28;20037;-55
2023/06/28 05:18:43;;;;;;;9.50;3.92;;;;;;;15.54;100.00;101703.19;5024109;28;20152;-56
2023/06/28 05:21:12;;;;;;;9.63;4.38;;;;;;;15.63;100.00;101699.00;5024876;28;20092;-54
2023/06/28 05:23:41;;;;;;;7.55;3.60;;;;;;;15.66;100.00;101704.09;5017742;28;20053;-57
2023/06/28 05:26:09;;;;;;;10.90;4.20;;;;;;;15.64;100.00;101695.41;5018973;28;20128;-56
2023/06/28 05:28:38;;;;;;;10.50;4.35;;;;;;;15.69;100.00;101708.31;5016832;28;20045;-57
2023/06/28 05:31:06;;;;;;;10.80;4.65;;;;;;;15.74;100.00;101703.53;5019005;28;20041;-54
2023/06/28 05:33:34;;;;;;;9.80;4.15;;;;;;;15.70;100.00;101699.41;5018883;28;20038;-56
2023/06/28 05:36:03;;;;;;;11.30;5.03;;;;;;;15.75;100.00;101705.22;5021794;28;20049;-55
2023/06/28 05:38:31;;;;;;;11.90;4.72;;;;;;;15.82;100.00;101695.88;5018627;28;20811;-54
2023/06/28 05:41:13;;;;;;;9.82;4.55;;;;;;;15.79;100.00;101695.22;5019808;28;20033;-56
2023/06/28 05:43:43;;;;;;;13.43;4.50;;;;;;;15.72;100.00;101693.03;5018650;28;20069;-54
2023/06/28 05:46:11;;;;;;;10.27;4.65;;;;;;;15.71;100.00;101695.81;5021432;28;20124;-55
2023/06/28 05:48:43;;;;;;;9.43;4.88;;;;;;;15.67;100.00;101692.53;5017507;28;20068;-56
2023/06/28 05:51:12;;;;;;;9.73;4.35;;;;;;;15.76;100.00;101692.81;5017693;28;20532;-56
2023/06/28 05:53:41;;;;;;;11.75;5.07;;;;;;;15.68;100.00;101694.22;5017089;28;20073;-55
2023/06/28 05:56:11;;;;;;;12.20;4.22;;;;;;;15.76;100.00;101692.81;5022086;28;20129;-55
2023/06/28 05:58:39;;;;;;;8.63;4.30;;;;;;;15.78;100.00;101689.09;5018586;28;20529;-55
2023/06/28 06:01:07;;;;;;;11.85;4.63;;;;;;;15.78;100.00;101690.91;5017253;28;20046;-55
2023/06/28 06:03:36;;;;;;;10.30;4.40;;;;;;;15.67;100.00;101692.53;5016283;28;20077;-54
2023/06/28 06:06:04;;;;;;;11.00;4.60;;;;;;;15.60;100.00;101688.63;5018512;28;20050;-56
2023/06/28 06:08:33;;;;;;;9.23;4.20;;;;;;;15.64;100.00;101695.41;5017667;28;20133;-55
2023/06/28 06:11:01;;;;;;;11.45;4.70;;;;;;;15.72;100.00;101694.84;5019086;28;20037;-55
2023/06/28 06:13:31;;;;;;;12.90;4.60;;;;;;;15.66;100.00;101688.16;5029209;28;20041;-56
2023/06/28 06:16:00;;;;;;;12.27;4.65;;;;;;;15.73;100.00;101685.91;5018628;28;20049;-54
2023/06/28 06:18:28;;;;;;;10.30;5.18;;;;;;;15.76;100.00;101690.16;5016300;28;20462;-54
2023/06/28 06:20:56;;;;;;;10.50;4.88;;;;;;;15.76;100.00;101695.44;5012157;28;20052;-55
2023/06/28 06:23:24;;;;;;;16.00;5.72;;;;;;;15.83;100.00;101688.78;5027089;28;20056;-55
2023/06/28 06:25:53;;;;;;;9.52;4.65;;;;;;;15.83;100.00;101683.50;5017685;28;20053;-54
2023/06/28 06:28:21;;;;;;;11.30;5.30;;;;;;;15.80;100.00;101684.56;5016014;28;20057;-55
2023/06/28 06:30:50;;;;;;;11.48;5.18;;;;;;;15.79;100.00;101676.66;5017137;28;20131;-55
2023/06/28 06:33:19;;;;;;;9.15;4.65;;;;;;;15.81;100.00;101680.09;5019769;28;20078;-55
2023/06/28 06:35:49;;;;;;;12.65;5.53;;;;;;;15.81;100.00;101680.94;5009998;28;20075;-56
2023/06/28 06:38:17;;;;;;;9.50;5.38;;;;;;;15.84;100.00;101682.50;5008850;28;20117;-56
2023/06/28 06:40:45;;;;;;;11.35;5.70;;;;;;;16.01;100.00;101687.41;5009300;28;20084;-54
2023/06/28 06:43:14;;;;;;;11.52;5.40;;;;;;;15.96;100.00;101689.53;5008446;28;20485;-56
2023/06/28 06:45:42;;;;;;;13.85;5.43;;;;;;;15.98;100.00;101692.06;5012728;28;20037;-56
2023/06/28 06:48:12;;;;;;;12.10;5.57;;;;;;;15.92;100.00;101688.09;5025074;28;20057;-57
2023/06/28 06:50:40;;;;;;;10.18;5.80;;;;;;;15.92;100.00;101698.69;5002412;28;20034;-55
2023/06/28 06:53:09;;;;;;;11.30;6.00;;;;;;;15.87;100.00;101690.25;5009929;28;20049;-54
2023/06/28 06:55:37;;;;;;;9.77;5.68;;;;;;;15.95;100.00;101693.19;5009546;28;20050;-57
2023/06/28 06:58:05;;;;;;;18.48;7.13;;;;;;;15.98;100.00;101700.03;5008507;28;20049;-55
2023/06/28 07:00:36;;;;;;;12.05;6.25;;;;;;;16.01;100.00;101695.34;5008731;28;20061;-56
2023/06/28 07:03:04;;;;;;;15.38;6.53;;;;;;;15.99;100.00;101699.94;5007675;28;20568;-56
2023/06/28 07:05:34;;;;;;;11.80;6.28;;;;;;;15.97;100.00;101701.84;5008183;28;20441;-56
2023/06/28 07:08:02;;;;;;;15.13;6.75;;;;;;;15.99;100.00;101699.09;5011042;28;20516;-57
2023/06/28 07:10:30;;;;;;;14.60;6.10;;;;;;;15.99;100.00;101702.59;5015262;28;20041;-57
2023/06/28 07:12:58;;;;;;;11.65;6.43;;;;;;;16.06;100.00;101703.00;4997130;28;20136;-56
2023/06/28 07:15:29;;;;;;;12.65;6.60;;;;;;;16.08;100.00;101705.53;5008719;28;20766;-56
2023/06/28 07:17:57;;;;;;;14.70;6.53;;;;;;;16.07;100.00;101695.88;5007900;28;20052;-57
2023/06/28 07:20:25;;;;;;;13.63;6.75;;;;;;;16.12;100.00;101704.34;5013912;28;20126;-57
2023/06/28 07:22:55;;;;;;;13.95;6.88;;;;;;;16.14;100.00;101705.06;5021831;28;20041;-57
2023/06/28 07:25:23;;;;;;;11.38;6.55;;;;;;;16.21;100.00;101708.94;5010722;28;20060;-57
2023/06/28 07:27:51;;;;;;;10.15;6.15;;;;;;;16.23;100.00;101707.84;5008509;28;20452;-56
2023/06/28 07:30:19;;;;;;;13.98;7.30;;;;;;;16.27;100.00;101703.16;5008169;28;20053;-57
2023/06/28 07:32:47;;;;;;;15.70;6.70;;;;;;;16.25;100.00;101701.59;5006647;28;20075;-57
2023/06/28 07:35:16;;;;;;;14.07;6.78;;;;;;;16.29;100.00;101705.69;5008390;28;20664;-56
2023/06/28 07:37:44;;;;;;;14.77;7.50;;;;;;;16.29;100.00;101701.25;5008579;28;20056;-55
2023/06/28 07:40:16;;;;;;;15.88;6.85;;;;;;;16.37;100.00;101700.66;5008587;28;20057;-57
2023/06/28 07:42:44;;;;;;;12.50;6.95;;;;;;;16.35;100.00;101707.91;5009951;28;20497;-57
2023/06/28 07:45:12;;;;;;;13.88;7.20;;;;;;;16.38;100.00;101705.84;5009273;28;20497;-56
2023/06/28 07:47:41;;;;;;;13.85;7.55;;;;;;;16.37;100.00;101705.97;5008013;28;20120;-56
2023/06/28 07:50:10;;;;;;;10.07;6.97;;;;;;;16.39;100.00;101706.72;5008759;28;20054;-57
2023/06/28 07:52:41;;;;;;;13.37;7.40;;;;;;;16.52;100.00;101715.44;5010021;28;20046;-57
2023/06/28 07:55:10;;;;;;;14.50;7.43;;;;;;;16.42;100.00;101713.59;5012446;28;20570;-57
2023/06/28 07:57:40;;;;;;;13.50;6.45;;;;;;;16.43;100.00;101707.28;5012276;28;20045;-58
2023/06/28 08:00:10;;;;;;;11.55;6.57;;;;;;;16.57;100.00;101709.75;5012455;28;20100;-57
2023/06/28 08:02:41;;;;;;;12.93;6.95;;;;;;;16.52;100.00;101714.56;5012143;28;20131;-60
2023/06/28 08:05:10;;;;;;;16.80;7.20;;;;;;;16.62;100.00;101712.91;5015540;28;20104;-57
2023/06/28 08:07:38;;;;;;;15.05;6.40;;;;;;;16.67;100.00;101710.72;5025758;28;20057;-57
2023/06/28 08:10:07;;;;;;;10.13;6.03;;;;;;;16.44;100.00;101712.50;5016350;28;20369;-57
2023/06/28 08:12:35;;;;;;;10.13;5.85;;;;;;;16.59;100.00;101706.97;5028257;28;20034;-57
2023/06/28 08:15:05;;;;;;;14.18;6.28;;;;;;;16.66;100.00;101714.38;5017711;28;20050;-57
2023/06/28 08:17:33;;;;;;;12.68;6.32;;;;;;;16.77;100.00;101710.00;5021116;28;20374;-58
2023/06/28 08:20:01;;;;;;;13.93;6.28;;;;;;;16.75;100.00;101707.47;5019735;28;20484;-58
2023/06/28 08:22:30;;;;;;;13.27;6.53;;;;;;;16.83;100.00;101709.53;5011057;28;20111;-57
2023/06/28 08:24:58;;;;;;;14.82;6.07;;;;;;;16.95;100.00;101707.78;5019053;28;20041;-58
2023/06/28 08:27:26;;;;;;;11.23;6.25;;;;;;;17.00;100.00;101717.06;5029561;28;20079;-57
2023/06/28 08:29:54;;;;;;;15.00;5.97;;;;;;;17.08;100.00;101713.78;5016320;28;20850;-57
2023/06/28 08:32:24;;;;;;;14.95;6.90;;;;;;;17.12;100.00;101709.09;5021033;28;20117;-58
2023/06/28 08:34:52;;;;;;;12.85;6.07;;;;;;;17.22;100.00;101715.38;5013008;28;20046;-56
2023/06/28 08:37:20;;;;;;;12.10;5.82;;;;;;;17.33;100.00;101722.47;5027771;28;20045;-57
2023/06/28 08:39:51;;;;;;;15.48;6.18;;;;;;;17.35;100.00;101721.38;5045862;28;20042;-57
2023/06/28 08:42:19;;;;;;;11.38;6.43;;;;;;;17.20;100.00;101711.97;5022921;28;20053;-56
2023/06/28 08:44:50;;;;;;;13.80;6.15;;;;;;;17.33;100.00;101712.69;5017189;28;20053;-58
2023/06/28 08:47:19;;;;;;;14.52;6.72;;;;;;;17.45;100.00;101705.56;5016292;28;20041;-57
2023/06/28 08:49:49;;;;;;;12.45;5.97;;;;;;;17.52;100.00;101708.53;5024948;28;20046;-57
2023/06/28 08:52:17;;;;;;;12.05;5.65;;;;;;;17.60;100.00;101700.81;5011843;28;20037;-57
2023/06/28 08:54:46;;;;;;;9.43;5.38;;;;;;;17.60;100.00;101708.78;5011866;28;20073;-58
2023/06/28 08:57:17;;;;;;;12.52;6.20;;;;;;;17.70;100.00;101706.22;5013087;28;20061;-58
2023/06/28 08:59:45;;;;;;;12.05;5.43;;;;;;;17.73;100.00;101704.13;5011261;28;20056;-57
2023/06/28 09:02:17;;;;;;;11.50;6.10;;;;;;;17.47;100.00;101708.09;5009957;28;20057;-58
2023/06/28 09:04:48;;;;;;;13.50;5.97;;;;;;;17.62;100.00;101701.50;5010854;28;20057;-57
2023/06/28 09:07:19;;;;;;;9.98;6.32;;;;;;;17.63;100.00;101705.88;5010836;28;20050;-57
2023/06/28 09:09:51;;;;;;;13.38;6.53;;;;;;;17.75;100.00;101701.34;5011868;28;20057;-58
2023/06/28 09:12:20;;;;;;;13.27;5.63;;;;;;;17.76;100.00;101703.03;5010644;28;20049;-61
2023/06/28 09:14:50;;;;;;;13.98;5.82;;;;;;;17.72;100.00;101707.78;5009609;28;20044;-58
2023/06/28 09:17:18;;;;;;;9.60;5.55;;;;;;;17.80;100.00;101711.63;5010291;28;20050;-57
2023/06/28 09:19:51;;;;;;;10.43;5.53;;;;;;;17.91;100.00;101711.56;5009785;28;20064;-58
2023/06/28 09:22:21;;;;;;;10.50;5.28;;;;;;;18.03;100.00;101710.56;5010554;28;20033;-57
2023/06/28 09:24:50;;;;;;;13.05;5.70;;;;;;;18.04;100.00;101712.28;5016424;28;20136;-58
2023/06/28 09:27:18;;;;;;;13.35;5.68;;;;;;;18.00;100.00;101710.00;5022349;28;20030;-57
2023/06/28 09:29:59;;;;;;;11.43;6.00;;;;;;;18.01;100.00;101703.69;5011768;28;20046;-57
2023/06/28 09:32:39;;;;;;;14.95;6.25;;;;;;;17.95;100.00;101702.38;5010562;28;20050;-57
2023/06/28 09:35:10;;;;;;;13.38;5.65;;;;;;;18.08;100.00;101703.06;5014150;28;20053;-58
2023/06/28 09:37:40;;;;;;;13.35;6.05;;;;;;;18.18;100.00;101702.28;5010643;28;20774;-58
2023/06/28 09:40:09;;;;;;;12.18;6.50;;;;;;;18.12;100.00;101700.13;5010748;28;20558;-58
2023/06/28 09:42:44;;;;;;;12.68;6.45;;;;;;;18.27;100.00;101701.53;5020200;28;20053;-58
2023/06/28 09:45:25;;;;;;;14.02;6.07;;;;;;;18.24;100.00;101697.31;5023577;28;20046;-58
2023/06/28 09:47:57;;;;;;;13.17;5.83;;;;;;;18.30;100.00;101695.09;5021795;28;20049;-57
2023/06/28 09:50:39;;;;;;;12.18;5.68;;;;;;;18.32;100.00;101706.44;5008598;28;20042;-58
2023/06/28 09:53:10;;;;;;;12.90;5.80;;;;;;;18.36;100.00;101703.38;5014595;28;20103;-59
2023/06/28 09:55:39;;;;;;;12.30;5.70;;;;;;;18.44;100.00;101705.41;5020575;28;20540;-61
2023/06/28 09:58:12;;;;;;;10.40;5.50;;;;;;;18.47;100.00;101706.97;5009177;28;20136;-57
2023/06/28 10:00:42;;;;;;;11.80;6.28;;;;;;;18.53;100.00;101701.97;5016606;28;20511;-58
2023/06/28 10:03:12;;;;;;;13.00;6.57;;;;;;;18.61;100.00;101697.78;5009954;28;20054;-58
2023/06/28 10:05:42;;;;;;;11.73;6.13;;;;;;;18.54;100.00;101703.66;5012585;28;20579;-58
2023/06/28 10:08:14;;;;;;;13.40;5.70;;;;;;;18.59;100.00;101701.41;5025775;28;20038;-58
2023/06/28 10:10:45;;;;;;;13.32;6.40;;;;;;;18.78;100.00;101705.16;5013721;28;20045;-58
2023/06/28 10:13:21;;;;;;;10.93;5.68;;;;;;;18.84;100.00;101699.31;5019743;28;20049;-58
2023/06/28 10:15:57;;;;;;;12.20;5.90;;;;;;;18.88;100.00;101699.91;5008839;28;20449;-58
2023/06/28 10:18:26;;;;;;;14.60;5.85;;;;;;;19.03;100.00;101701.25;5009580;28;20129;-57
2023/06/28 10:20:54;;;;;;;11.90;6.07;;;;;;;19.15;100.00;101699.31;5010058;28;20050;-58
2023/06/28 10:23:27;;;;;;;15.10;6.65;;;;;;;19.20;100.00;101697.09;5018103;28;20046;-58
2023/06/28 10:25:58;;;;;;;13.02;6.18;;;;;;;19.15;100.00;101696.66;5012780;28;20114;-58
2023/06/28 10:28:29;;;;;;;15.55;6.28;;;;;;;19.30;100.00;101696.28;5024207;28;20499;-58
2023/06/28 10:30:58;;;;;;;13.13;6.13;;;;;;;19.45;100.00;101689.56;5017838;28;20136;-59
2023/06/28 10:33:28;;;;;;;12.07;6.70;;;;;;;19.59;100.00;101691.84;5021673;28;20111;-60
2023/06/28 10:35:56;;;;;;;11.40;6.22;;;;;;;19.63;100.00;101694.22;5023209;28;20049;-58
2023/06/28 10:38:26;;;;;;;13.75;7.00;;;;;;;19.54;100.00;101687.91;5026783;28;20045;-59
2023/06/28 10:40:55;;;;;;;16.73;6.82;;;;;;;19.75;100.00;101682.44;5019321;28;20041;-59
2023/06/28 10:43:25;;;;;;;14.35;6.95;;;;;;;19.64;100.00;101679.91;5026762;28;20515;-58
2023/06/28 10:45:53;;;;;;;12.63;6.85;;;;;;;19.74;100.00;101684.28;5019525;28;20486;-58
2023/06/28 10:48:22;;;;;;;14.02;6.68;;;;;;;19.94;100.00;101684.28;5024561;28;20045;-58
2023/06/28 10:50:52;;;;;;;12.27;6.38;;;;;;;20.20;100.00;101689.88;5015125;28;20054;-59
2023/06/28 10:53:21;;;;;;;14.52;6.78;;;;;;;20.10;100.00;101681.88;5011581;28;20425;-59
2023/06/28 10:56:10;;;;;;;21.48;6.32;;;;;;;20.46;100.00;101685.78;5015372;28;20057;-58
2023/06/28 10:58:39;;;;;;;14.73;6.63;;;;;;;20.56;100.00;101686.56;5008234;28;20061;-58
2023/06/28 11:01:08;;;;;;;13.10;7.13;;;;;;;20.51;100.00;101683.50;5008421;28;20120;-58
2023/06/28 11:03:41;;;;;;;11.65;6.43;;;;;;;20.52;100.00;101680.69;5013530;28;20053;-59
2023/06/28 11:06:12;;;;;;;13.95;6.72;;;;;;;20.63;100.00;101679.69;5015391;28;20123;-59
2023/06/28 11:08:45;;;;;;;13.13;6.30;;;;;;;21.03;100.00;101673.19;5023580;28;20049;-58
2023/06/28 11:11:35;;;;;;;10.75;6.20;;;;;;;21.36;100.00;101667.38;5016705;28;20390;-58
2023/06/28 11:14:18;;;;;;;13.30;7.22;;;;;;;21.19;100.00;101671.72;5010779;28;20062;-58
2023/06/28 11:16:48;;;;;;;14.18;7.55;;;;;;;21.73;100.00;101663.75;5017443;28;20064;-58
2023/06/28 11:19:19;;;;;;;13.90;6.60;;;;;;;21.84;100.00;101657.31;5009979;28;20060;-58
2023/06/28 11:21:49;;;;;;;15.68;7.30;;;;;;;21.85;100.00;101659.00;5025239;28;20183;-59